createdAt,value
2023-05-05T00:01:46.789Z,4.10
2023-05-05T00:04:49.860Z,4.13
2023-05-05T00:07:54.394Z,3.75
2023-05-05T00:10:57.732Z,3.58
2023-05-05T00:14:01.089Z,3.70
2023-05-05T00:17:04.388Z,3.90
2023-05-05T00:20:12.492Z,3.90
2023-05-05T00:23:17.183Z,3.80
2023-05-05T00:26:21.230Z,3.80
2023-05-05T00:29:26.815Z,4.70
2023-05-05T00:32:29.931Z,4.40
2023-05-05T00:35:33.135Z,4.22
2023-05-05T00:38:38.077Z,4.25
2023-05-05T00:41:42.460Z,4.80
2023-05-05T00:44:45.998Z,4.22
2023-05-05T00:47:51.201Z,3.70
2023-05-05T00:50:54.581Z,4.40
2023-05-05T00:53:59.381Z,3.70
2023-05-05T00:57:03.095Z,4.38
2023-05-05T01:00:09.830Z,4.22
2023-05-05T01:03:18.487Z,4.10
2023-05-05T01:06:46.149Z,3.90
2023-05-05T01:10:11.002Z,3.65
2023-05-05T01:13:28.802Z,3.75
2023-05-05T01:16:35.371Z,4.07
2023-05-05T01:20:03.727Z,4.43
2023-05-05T01:23:09.535Z,4.03
2023-05-05T01:26:25.736Z,3.58
2023-05-05T01:29:41.673Z,3.90
2023-05-05T01:32:51.315Z,3.92
2023-05-05T01:35:59.055Z,4.50
2023-05-05T01:39:04.188Z,4.10
2023-05-05T01:42:13.769Z,4.55
2023-05-05T01:45:21.144Z,5.05
2023-05-05T01:48:26.884Z,4.68
2023-05-05T01:51:31.031Z,4.70
2023-05-05T01:54:35.540Z,4.75
2023-05-05T01:57:42.449Z,4.40
2023-05-05T02:00:46.672Z,4.70
2023-05-05T02:03:52.851Z,4.60
2023-05-05T02:06:58.730Z,4.90
2023-05-05T02:10:03.562Z,5.00
2023-05-05T02:13:07.143Z,4.90
2023-05-05T02:16:11.581Z,4.65
2023-05-05T02:19:17.068Z,4.70
2023-05-05T02:22:20.316Z,5.03
2023-05-05T02:25:27.264Z,4.88
2023-05-05T02:28:36.337Z,4.82
2023-05-05T02:31:43.427Z,4.40
2023-05-05T02:34:51.392Z,4.47
2023-05-05T02:38:02.516Z,4.38
2023-05-05T02:41:14.576Z,4.88
2023-05-05T02:44:21.181Z,5.00
2023-05-05T02:47:30.186Z,4.75
2023-05-05T02:50:35.035Z,5.00
2023-05-05T02:53:48.977Z,3.97
2023-05-05T02:56:54.327Z,4.90
2023-05-05T03:00:05.993Z,4.70
2023-05-05T03:03:17.744Z,5.65
2023-05-05T03:06:28.343Z,4.90
2023-05-05T03:09:37.811Z,5.30
2023-05-05T03:12:47.022Z,4.90
2023-05-05T03:15:59.594Z,5.28
2023-05-05T03:19:04.507Z,4.03
2023-05-05T03:22:10.354Z,4.13
2023-05-05T03:25:17.638Z,4.25
2023-05-05T03:28:21.191Z,4.97
2023-05-05T03:34:45.186Z,4.85
2023-05-05T03:37:48.691Z,4.32
2023-05-05T03:40:53.889Z,4.95
2023-05-05T03:44:00.026Z,5.00
2023-05-05T03:47:03.742Z,4.72
2023-05-05T03:50:13.093Z,4.55
2023-05-05T03:53:16.893Z,4.20
2023-05-05T03:56:20.558Z,4.57
2023-05-05T03:59:23.666Z,4.28
2023-05-05T04:02:27.182Z,3.35
2023-05-05T04:05:31.775Z,3.60
2023-05-05T04:08:35.303Z,3.67
2023-05-05T04:11:38.634Z,4.00
2023-05-05T04:14:41.924Z,3.90
2023-05-05T04:17:47.658Z,4.22
2023-05-05T04:20:52.516Z,4.20
2023-05-05T04:23:56.495Z,4.10
2023-05-05T04:26:59.719Z,4.18
2023-05-05T04:30:05.747Z,4.50
2023-05-05T04:33:10.762Z,4.38
2023-05-05T04:36:15.405Z,4.13
2023-05-05T04:39:18.988Z,4.47
2023-05-05T04:42:22.343Z,3.20
2023-05-05T04:45:26.228Z,4.05
2023-05-05T04:48:29.797Z,4.28
2023-05-05T04:51:34.360Z,4.20
2023-05-05T04:54:37.714Z,4.07
2023-05-05T04:57:40.922Z,4.10
2023-05-05T05:00:44.525Z,3.83
2023-05-05T05:03:49.756Z,3.63
2023-05-05T05:06:55.734Z,3.40
2023-05-05T05:10:00.602Z,3.42
2023-05-05T05:13:03.904Z,4.07
2023-05-05T05:16:07.933Z,3.95
2023-05-05T05:19:11.715Z,3.60
2023-05-05T05:22:16.332Z,3.75
2023-05-05T05:25:20.338Z,3.65
2023-05-05T05:28:24.936Z,3.88
2023-05-05T05:31:34.287Z,3.65
2023-05-05T05:34:37.773Z,3.90
2023-05-05T05:37:44.108Z,3.70
2023-05-05T05:40:49.438Z,3.80
2023-05-05T05:43:53.117Z,3.30
2023-05-05T05:46:56.469Z,3.65
2023-05-05T05:49:59.936Z,3.60
2023-05-05T05:53:05.371Z,4.13
2023-05-05T05:56:09.832Z,3.33
2023-05-05T05:59:13.607Z,4.30
2023-05-05T06:02:19.114Z,3.63
2023-05-05T06:05:23.121Z,3.58
2023-05-05T06:08:29.136Z,3.45
2023-05-05T06:11:34.925Z,3.30
2023-05-05T06:14:38.059Z,3.58
2023-05-05T06:17:41.504Z,3.30
2023-05-05T06:24:31.952Z,3.70
2023-05-05T06:28:33.507Z,3.50
2023-05-05T06:31:42.607Z,3.40
2023-05-05T06:35:33.644Z,3.97
2023-05-05T06:39:06.580Z,4.00
2023-05-05T06:42:57.996Z,3.33
2023-05-05T06:46:59.444Z,3.95
2023-05-05T06:50:14.454Z,3.60
2023-05-05T06:54:31.626Z,3.70
2023-05-05T06:57:50.417Z,3.95
2023-05-05T07:05:55.573Z,4.03
2023-05-05T07:09:55.138Z,3.67
2023-05-05T07:13:26.650Z,4.20
2023-05-05T07:16:38.941Z,4.20
2023-05-05T07:19:58.780Z,4.20
2023-05-05T07:23:48.527Z,4.10
2023-05-05T07:27:31.738Z,4.03
2023-05-05T07:30:58.821Z,3.30
2023-05-05T07:34:22.465Z,3.63
2023-05-05T07:37:42.935Z,4.28
2023-05-05T07:41:02.193Z,4.40
2023-05-05T07:45:19.014Z,4.40
2023-05-05T07:49:31.082Z,4.00
2023-05-05T08:00:41.074Z,4.05
2023-05-05T08:03:53.831Z,4.15
2023-05-05T08:08:06.667Z,4.45
2023-05-05T08:11:29.786Z,4.47
2023-05-05T08:18:47.454Z,4.32
2023-05-05T08:26:02.138Z,5.50
2023-05-05T08:30:06.083Z,4.47
2023-05-05T08:34:04.395Z,5.47
2023-05-05T08:37:25.633Z,4.78
2023-05-05T08:40:56.008Z,5.70
2023-05-05T08:45:17.469Z,6.13
2023-05-05T09:05:37.628Z,7.00
2023-05-05T09:09:06.245Z,7.22
2023-05-05T09:13:12.379Z,6.90
2023-05-05T09:20:22.969Z,7.07
2023-05-05T09:23:40.921Z,8.25
2023-05-05T09:27:23.358Z,6.95
2023-05-05T09:35:40.273Z,6.70
2023-05-05T09:46:58.190Z,5.82
2023-05-05T09:57:40.729Z,7.00
2023-05-05T10:01:39.781Z,7.30
2023-05-05T10:05:26.999Z,5.72
2023-05-05T10:09:16.786Z,7.18
2023-05-05T10:12:42.126Z,6.28
2023-05-05T10:16:13.414Z,5.95
2023-05-05T10:28:15.316Z,7.60
2023-05-05T10:31:58.676Z,7.07
2023-05-05T10:35:48.430Z,6.80
2023-05-05T10:39:34.726Z,6.10
2023-05-05T10:42:56.412Z,6.43
2023-05-05T10:46:40.342Z,7.38
2023-05-05T11:00:13.446Z,6.15
2023-05-05T11:03:46.268Z,5.53
2023-05-05T11:07:54.716Z,6.38
2023-05-05T11:15:45.367Z,5.70
2023-05-05T11:19:49.518Z,6.07
2023-05-05T11:23:31.335Z,7.45
2023-05-05T11:26:52.826Z,6.03
2023-05-05T11:30:36.027Z,5.93
2023-05-05T11:38:47.042Z,4.88
2023-05-05T11:42:56.459Z,4.63
2023-05-05T11:47:16.988Z,4.20
2023-05-05T11:54:05.617Z,4.88
2023-05-05T11:57:24.505Z,4.10
2023-05-05T12:00:48.918Z,4.18
2023-05-05T12:03:58.397Z,5.43
2023-05-05T12:08:18.506Z,5.90
2023-05-05T12:12:04.943Z,5.57
2023-05-05T12:15:41.905Z,6.80
2023-05-05T12:19:19.085Z,6.47
2023-05-05T12:22:35.747Z,6.47
2023-05-05T12:25:57.484Z,7.43
2023-05-05T12:29:07.046Z,7.53
2023-05-05T12:32:37.317Z,41.17
2023-05-05T12:35:51.266Z,11.38
2023-05-05T12:38:54.402Z,7.90
2023-05-05T12:46:13.836Z,7.35
2023-05-05T12:49:29.277Z,8.85
2023-05-05T12:52:57.677Z,8.00
2023-05-05T12:56:37.701Z,7.20
2023-05-05T12:59:42.198Z,7.03
2023-05-05T13:03:31.409Z,6.85
2023-05-05T13:11:15.834Z,6.35
2023-05-05T13:21:40.538Z,6.32
2023-05-05T13:24:54.521Z,5.95
2023-05-05T13:28:18.369Z,6.30
2023-05-05T13:35:34.037Z,6.80
2023-05-05T13:38:56.017Z,7.63
2023-05-05T13:45:49.508Z,8.82
2023-05-05T13:49:09.038Z,8.65
2023-05-05T13:55:50.905Z,7.35
2023-05-05T13:59:41.462Z,8.02
2023-05-05T14:02:50.536Z,7.68
2023-05-05T14:06:10.318Z,8.05
2023-05-05T14:13:31.048Z,6.47
2023-05-05T14:25:25.975Z,7.75
2023-05-05T14:34:22.942Z,5.40
2023-05-05T14:38:31.708Z,4.82
2023-05-05T14:42:02.522Z,6.05
2023-05-05T14:48:56.462Z,7.03
2023-05-05T14:56:34.946Z,5.68
2023-05-05T15:04:58.523Z,5.13
2023-05-05T15:11:49.891Z,5.15
2023-05-05T15:15:19.953Z,4.70
2023-05-05T15:26:25.563Z,8.30
2023-05-05T15:30:01.172Z,5.88
2023-05-05T15:44:54.289Z,3.30
2023-05-05T15:59:29.790Z,3.63
2023-05-05T16:03:32.557Z,3.85
2023-05-05T16:06:53.886Z,3.70
2023-05-05T16:15:43.888Z,3.75
2023-05-05T16:19:14.614Z,4.93
2023-05-05T16:22:20.937Z,3.60
2023-05-05T16:32:48.296Z,3.55
2023-05-05T16:36:03.185Z,3.80
2023-05-05T16:39:19.436Z,4.13
2023-05-05T16:42:48.226Z,4.60
2023-05-05T16:50:31.953Z,3.97
2023-05-05T16:54:04.842Z,3.75
2023-05-05T16:57:41.132Z,4.78
2023-05-05T17:00:51.673Z,3.83
2023-05-05T17:04:07.933Z,3.78
2023-05-05T17:07:52.170Z,3.60
2023-05-05T17:11:04.328Z,3.88
2023-05-05T17:14:15.083Z,6.13
2023-05-05T17:17:33.196Z,3.80
2023-05-05T17:20:45.938Z,4.45
2023-05-05T17:23:51.621Z,3.80
2023-05-05T17:32:38.822Z,3.70
2023-05-05T17:35:55.236Z,3.95
2023-05-05T17:39:32.100Z,3.90
2023-05-05T17:42:51.843Z,3.78
2023-05-05T17:46:29.688Z,3.85
2023-05-05T17:49:32.834Z,4.20
2023-05-05T17:52:50.929Z,4.00
2023-05-05T18:04:56.737Z,3.72
2023-05-05T18:12:08.785Z,4.65
2023-05-05T18:16:32.515Z,4.47
2023-05-05T18:20:28.145Z,4.85
2023-05-05T18:24:20.644Z,5.30
2023-05-05T18:28:47.968Z,4.93
2023-05-05T18:36:09.375Z,4.90
2023-05-05T18:40:01.638Z,5.10
2023-05-05T18:43:08.235Z,5.15
2023-05-05T18:46:54.227Z,5.35
2023-05-05T18:49:58.804Z,5.60
2023-05-05T18:53:40.505Z,5.30
2023-05-05T18:57:15.285Z,5.32
2023-05-05T19:00:59.754Z,5.13
2023-05-05T19:04:30.064Z,5.32
2023-05-05T19:12:22.988Z,5.35
2023-05-05T19:16:33.070Z,5.53
2023-05-05T19:20:13.130Z,4.38
2023-05-05T19:23:58.720Z,5.97
2023-05-05T19:33:01.947Z,3.55
2023-05-05T19:36:08.278Z,3.67
2023-05-05T19:39:15.709Z,4.00
2023-05-05T19:44:05.333Z,3.95
2023-05-05T19:48:14.400Z,4.95
2023-05-05T19:56:33.035Z,5.60
2023-05-05T20:07:00.667Z,5.70
2023-05-05T20:10:24.116Z,5.93
2023-05-05T20:13:38.158Z,5.53
2023-05-05T20:17:20.160Z,6.68
2023-05-05T20:28:50.905Z,5.80
2023-05-05T20:32:20.844Z,5.60
2023-05-05T20:36:33.533Z,5.90
2023-05-05T20:40:28.228Z,5.47
2023-05-05T20:48:25.584Z,5.00
2023-05-05T20:51:49.195Z,5.15
2023-05-05T20:55:26.092Z,5.60
2023-05-05T20:58:59.758Z,5.45
2023-05-05T21:02:20.723Z,5.75
2023-05-05T21:05:43.354Z,5.95
2023-05-05T21:09:37.956Z,6.57
2023-05-05T21:13:05.951Z,6.38
2023-05-05T21:17:14.064Z,7.88
2023-05-05T21:21:32.579Z,8.68
2023-05-05T21:24:55.041Z,11.45
2023-05-05T21:28:17.003Z,9.75
2023-05-05T21:35:24.617Z,8.52
2023-05-05T21:38:50.908Z,8.70
2023-05-05T21:42:16.969Z,8.88
2023-05-05T21:46:05.623Z,8.10
2023-05-05T21:49:28.161Z,9.52
2023-05-05T21:52:35.934Z,9.10
2023-05-05T21:56:24.470Z,10.23
2023-05-05T22:03:29.340Z,10.10
2023-05-05T22:06:46.585Z,11.07
2023-05-05T22:10:00.252Z,10.30
2023-05-05T22:13:58.154Z,13.02
2023-05-05T22:17:04.183Z,13.32
2023-05-05T22:20:14.615Z,14.48
2023-05-05T22:31:47.796Z,13.88
2023-05-05T22:35:12.502Z,14.50
2023-05-05T22:38:41.228Z,12.57
2023-05-05T22:42:18.246Z,13.55
2023-05-05T22:45:27.269Z,12.50
2023-05-05T22:49:00.319Z,13.85
2023-05-05T22:52:37.046Z,12.50
2023-05-05T22:59:49.495Z,12.93
2023-05-05T23:02:55.491Z,12.30
2023-05-05T23:06:01.585Z,11.43
2023-05-05T23:09:33.870Z,11.98
2023-05-05T23:17:03.815Z,12.87
2023-05-05T23:20:36.061Z,11.75
2023-05-05T23:24:43.703Z,11.25
2023-05-05T23:27:53.588Z,12.20
2023-05-05T23:30:59.596Z,12.80
2023-05-05T23:34:26.596Z,11.98
2023-05-05T23:37:38.368Z,11.80
2023-05-05T23:40:44.376Z,13.52
2023-05-05T23:44:19.752Z,13.98
2023-05-05T23:48:10.869Z,12.13
2023-05-05T23:51:23.700Z,12.60
2023-05-05T23:54:56.396Z,10.65
2023-05-05T23:58:08.698Z,11.48
